Time;durP1;ratioP1;P1;durP2;ratioP2;P2;SDS_P1;SDS_P2;PMS_P1;PMS_P2;Temp;Humidity;BMP_temperature;BMP_pressure;BME280_temperature;BME280_humidity;BME280_pressure;Samples;Min_cycle;Max_cycle;Signal;HPM_P1;HPM_P2
2023/12/05 00:01:21;;;;;;;0.87;0.83;;;3.50;99.90;;;;;;7398705;19;20142;-82
2023/12/05 00:03:47;;;;;;;1.00;0.90;;;3.80;99.90;;;;;;7397647;19;20166;-80
2023/12/05 00:06:12;;;;;;;1.13;1.03;;;4.00;99.90;;;;;;7398438;19;20143;-83
2023/12/05 00:08:38;;;;;;;2.13;1.37;;;4.20;99.90;;;;;;7397734;19;20531;-80
2023/12/05 00:11:06;;;;;;;1.30;0.90;;;4.30;99.90;;;;;;7399236;19;20153;-82
2023/12/05 00:13:32;;;;;;;1.97;1.30;;;4.30;99.90;;;;;;7396664;19;20578;-82
2023/12/05 00:15:58;;;;;;;1.50;1.40;;;4.40;99.90;;;;;;7394639;19;20163;-82
2023/12/05 00:18:25;;;;;;;1.03;0.90;;;4.10;99.90;;;;;;7398052;19;20499;-81
2023/12/05 00:20:51;;;;;;;0.87;0.83;;;4.10;99.90;;;;;;7399067;19;20166;-81
2023/12/05 00:23:17;;;;;;;1.33;1.23;;;4.30;99.90;;;;;;7399288;19;20198;-82
2023/12/05 00:25:43;;;;;;;1.10;0.80;;;4.30;99.90;;;;;;7398340;19;20663;-82
2023/12/05 00:28:09;;;;;;;1.33;1.00;;;4.30;99.90;;;;;;7395769;19;20150;-82
2023/12/05 00:30:35;;;;;;;0.93;0.57;;;4.30;99.90;;;;;;7396835;19;20168;-81
2023/12/05 00:33:00;;;;;;;1.50;1.03;;;4.40;99.90;;;;;;7395987;19;20155;-81
2023/12/05 00:35:26;;;;;;;1.30;1.20;;;4.70;99.90;;;;;;7395266;19;20153;-79
2023/12/05 00:37:52;;;;;;;1.97;1.47;;;4.50;99.90;;;;;;7396622;19;20175;-84
2023/12/05 00:40:18;;;;;;;1.90;1.70;;;4.50;99.90;;;;;;7395781;19;20137;-82
2023/12/05 00:42:45;;;;;;;1.20;0.77;;;4.60;99.90;;;;;;7392384;19;20516;-82
2023/12/05 00:45:12;;;;;;;1.20;1.10;;;4.30;99.90;;;;;;7395855;19;20154;-82
2023/12/05 00:47:39;;;;;;;1.77;1.43;;;4.30;99.90;;;;;;7393867;19;20155;-81
2023/12/05 00:50:07;;;;;;;1.83;1.63;;;4.50;99.90;;;;;;7397042;19;20150;-81
2023/12/05 00:52:33;;;;;;;1.43;1.30;;;4.50;99.90;;;;;;7395345;19;20131;-81
2023/12/05 00:54:58;;;;;;;4.27;1.47;;;4.50;99.90;;;;;;7398006;19;20155;-82
2023/12/05 00:57:24;;;;;;;1.73;1.40;;;4.60;99.90;;;;;;7394646;19;20513;-81
2023/12/05 00:59:50;;;;;;;2.17;1.80;;;4.70;99.90;;;;;;7393852;19;20138;-82
2023/12/05 01:02:15;;;;;;;1.77;0.80;;;4.60;99.90;;;;;;7394724;19;20158;-81
2023/12/05 01:04:41;;;;;;;2.63;1.53;;;4.70;99.90;;;;;;7393283;19;20159;-82
2023/12/05 01:07:12;;;;;;;1.33;0.80;;;4.50;99.90;;;;;;7394887;19;20608;-82
2023/12/05 01:09:38;;;;;;;1.13;1.03;;;4.40;99.90;;;;;;7394335;19;20162;-81
2023/12/05 01:12:05;;;;;;;1.60;0.93;;;4.40;99.90;;;;;;7396127;19;20246;-81
2023/12/05 01:14:31;;;;;;;0.47;0.47;;;4.30;99.90;;;;;;7393420;19;20151;-81
2023/12/05 01:16:56;;;;;;;0.67;0.47;;;4.40;99.90;;;;;;7394660;19;20139;-81
2023/12/05 01:19:22;;;;;;;0.90;0.90;;;4.60;99.90;;;;;;7395070;19;20605;-81
2023/12/05 01:21:48;;;;;;;0.77;0.73;;;4.50;99.90;;;;;;7393001;19;20171;-81
2023/12/05 01:24:13;;;;;;;1.23;1.03;;;4.60;99.90;;;;;;7390797;19;20165;-81
2023/12/05 01:26:39;;;;;;;1.10;0.77;;;4.60;99.90;;;;;;7394453;19;20143;-80
2023/12/05 01:29:05;;;;;;;0.50;0.50;;;4.40;99.90;;;;;;7393110;19;20150;-80
2023/12/05 01:31:30;;;;;;;1.03;0.93;;;4.40;99.90;;;;;;7391589;19;20131;-81
2023/12/05 01:33:56;;;;;;;1.33;0.80;;;4.30;99.90;;;;;;7392698;19;20186;-81
2023/12/05 01:36:22;;;;;;;0.77;0.73;;;4.40;99.90;;;;;;7391355;19;20213;-81
2023/12/05 01:38:48;;;;;;;0.73;0.67;;;4.40;99.90;;;;;;7392180;19;20161;-81
2023/12/05 01:41:14;;;;;;;0.30;0.30;;;4.40;99.90;;;;;;7392286;19;20180;-82
2023/12/05 01:43:39;;;;;;;0.57;0.57;;;4.60;99.90;;;;;;7390048;19;20182;-82
2023/12/05 01:46:06;;;;;;;0.50;0.50;;;4.70;99.90;;;;;;7393455;19;20139;-82
2023/12/05 01:48:33;;;;;;;0.30;0.30;;;4.60;99.90;;;;;;7393588;19;20149;-82
2023/12/05 01:51:02;;;;;;;1.53;0.43;;;4.60;99.90;;;;;;7392297;19;20134;-81
2023/12/05 01:53:30;;;;;;;0.30;0.30;;;4.60;99.90;;;;;;7391501;19;20127;-82
2023/12/05 01:55:57;;;;;;;0.60;0.40;;;4.70;99.90;;;;;;7391304;19;20142;-81
2023/12/05 01:58:23;;;;;;;0.50;0.50;;;4.70;99.90;;;;;;7392390;19;20514;-81
2023/12/05 02:00:49;;;;;;;1.23;0.83;;;4.80;99.90;;;;;;7391083;19;20135;-83
2023/12/05 02:03:15;;;;;;;0.50;0.30;;;5.00;99.90;;;;;;7393616;19;20153;-81
2023/12/05 02:05:41;;;;;;;0.53;0.53;;;5.10;99.90;;;;;;7391609;19;20167;-81
2023/12/05 02:08:10;;;;;;;0.40;0.40;;;5.10;99.90;;;;;;7390750;19;20162;-82
2023/12/05 02:10:36;;;;;;;0.63;0.57;;;5.20;99.90;;;;;;7390673;19;20138;-81
2023/12/05 02:13:02;;;;;;;0.37;0.37;;;5.20;99.90;;;;;;7389608;19;20154;-80
2023/12/05 02:15:28;;;;;;;0.57;0.53;;;5.00;99.90;;;;;;7390339;19;20149;-81
2023/12/05 02:18:27;;;;;;;0.50;0.50;;;5.00;99.90;;;;;;7391491;19;20226;-81
2023/12/05 02:21:08;;;;;;;0.53;0.53;;;4.90;99.90;;;;;;7391483;19;20151;-80
2023/12/05 02:24:13;;;;;;;0.57;0.47;;;5.10;99.90;;;;;;7389518;19;20166;-80
2023/12/05 02:26:47;;;;;;;0.30;0.30;;;5.10;99.90;;;;;;7390646;19;20497;-80
2023/12/05 02:29:14;;;;;;;0.47;0.47;;;5.00;99.90;;;;;;7394294;19;20137;-81
2023/12/05 02:31:40;;;;;;;0.43;0.43;;;5.00;99.90;;;;;;7391484;19;20162;-80
2023/12/05 02:34:06;;;;;;;0.87;0.60;;;5.10;99.90;;;;;;7390111;19;20154;-80
2023/12/05 02:37:05;;;;;;;0.50;0.50;;;4.90;99.90;;;;;;7391403;19;20232;-81
2023/12/05 02:39:45;;;;;;;0.60;0.50;;;5.00;99.90;;;;;;7392378;19;20153;-81
2023/12/05 02:42:14;;;;;;;1.13;0.60;;;5.10;99.90;;;;;;7391531;19;20154;-79
2023/12/05 02:44:44;;;;;;;0.80;0.80;;;5.20;99.90;;;;;;7392667;19;20170;-81
2023/12/05 02:47:13;;;;;;;0.60;0.60;;;5.10;99.90;;;;;;7393489;19;20234;-80
2023/12/05 02:49:40;;;;;;;0.80;0.40;;;5.10;99.90;;;;;;7391982;19;20219;-80
2023/12/05 02:52:06;;;;;;;0.23;0.23;;;5.10;99.90;;;;;;7394026;19;20171;-80
2023/12/05 02:54:32;;;;;;;0.40;0.40;;;5.00;99.90;;;;;;7390935;19;20155;-80
2023/12/05 02:57:01;;;;;;;0.30;0.30;;;5.00;99.90;;;;;;7391439;19;20154;-83
2023/12/05 02:59:27;;;;;;;0.27;0.27;;;5.00;99.90;;;;;;7390139;19;20536;-80
2023/12/05 03:01:52;;;;;;;0.40;0.40;;;4.90;99.90;;;;;;7394063;19;20130;-80
2023/12/05 03:04:18;;;;;;;0.30;0.30;;;4.90;99.90;;;;;;7389091;19;20135;-81
2023/12/05 03:06:46;;;;;;;0.37;0.37;;;4.90;99.90;;;;;;7387871;19;20135;-80
2023/12/05 03:09:12;;;;;;;0.50;0.50;;;4.80;99.90;;;;;;7398286;19;20255;-79
2023/12/05 03:11:38;;;;;;;0.50;0.50;;;4.80;99.90;;;;;;7400904;19;20441;-81
2023/12/05 03:14:06;;;;;;;0.83;0.50;;;4.80;99.90;;;;;;7399313;19;20542;-82
2023/12/05 03:16:32;;;;;;;0.70;0.70;;;4.90;99.90;;;;;;7397781;19;20130;-81
2023/12/05 03:18:57;;;;;;;1.13;0.67;;;5.00;99.90;;;;;;7394024;19;20252;-79
2023/12/05 03:21:23;;;;;;;0.47;0.47;;;4.90;99.90;;;;;;7394730;19;20134;-80
2023/12/05 03:23:49;;;;;;;0.40;0.40;;;4.90;99.90;;;;;;7397080;19;20202;-81
2023/12/05 03:26:22;;;;;;;0.40;0.40;;;4.70;99.90;;;;;;7396372;19;20135;-81
2023/12/05 03:28:49;;;;;;;0.97;0.90;;;4.80;99.90;;;;;;7395114;19;20131;-80
2023/12/05 03:31:15;;;;;;;0.30;0.30;;;4.90;99.90;;;;;;7397389;19;20190;-83
2023/12/05 03:33:40;;;;;;;0.40;0.40;;;4.90;99.90;;;;;;7395504;19;20706;-81
2023/12/05 03:36:07;;;;;;;0.90;0.70;;;4.90;99.90;;;;;;7395869;19;20138;-81
2023/12/05 03:38:32;;;;;;;0.53;0.53;;;4.90;99.90;;;;;;7395920;19;20143;-82
2023/12/05 03:40:58;;;;;;;0.57;0.57;;;4.80;99.90;;;;;;7398107;19;20167;-82
2023/12/05 03:43:24;;;;;;;0.80;0.80;;;4.70;99.90;;;;;;7393789;19;20181;-80
2023/12/05 03:45:50;;;;;;;0.63;0.30;;;4.70;99.90;;;;;;7393652;19;20167;-78
2023/12/05 03:48:15;;;;;;;1.03;0.70;;;4.70;99.90;;;;;;7394833;19;20131;-83
2023/12/05 03:50:41;;;;;;;0.30;0.30;;;4.70;99.90;;;;;;7394241;19;20135;-81
2023/12/05 03:53:07;;;;;;;0.50;0.50;;;4.70;99.90;;;;;;7394193;19;20150;-79
2023/12/05 03:55:36;;;;;;;0.40;0.40;;;4.70;99.90;;;;;;7396120;19;20143;-82
2023/12/05 03:58:02;;;;;;;0.33;0.33;;;4.80;99.90;;;;;;7396455;19;20177;-81
2023/12/05 04:00:28;;;;;;;1.50;0.60;;;5.10;99.90;;;;;;7387842;19;20134;-81
2023/12/05 04:02:55;;;;;;;0.40;0.33;;;5.10;99.90;;;;;;7396417;19;20147;-79
2023/12/05 04:05:20;;;;;;;0.97;0.70;;;5.10;99.90;;;;;;7389242;19;20591;-82
2023/12/05 04:07:46;;;;;;;0.60;0.60;;;5.10;99.90;;;;;;7390696;19;20151;-80
2023/12/05 04:10:12;;;;;;;0.30;0.30;;;5.10;99.90;;;;;;7395743;19;20139;-80
2023/12/05 04:12:39;;;;;;;0.77;0.70;;;5.10;99.90;;;;;;7394086;19;20436;-81
2023/12/05 04:15:06;;;;;;;0.40;0.40;;;5.00;99.90;;;;;;7396285;19;20131;-81
2023/12/05 04:17:32;;;;;;;0.70;0.70;;;5.10;99.90;;;;;;7393723;19;20487;-81
2023/12/05 04:19:58;;;;;;;0.50;0.50;;;5.10;99.90;;;;;;7388369;19;20131;-80
2023/12/05 04:22:24;;;;;;;0.83;0.80;;;5.10;99.90;;;;;;7395417;19;20483;-79
2023/12/05 04:24:50;;;;;;;0.60;0.60;;;4.90;99.90;;;;;;7393042;19;20160;-79
2023/12/05 04:27:15;;;;;;;1.07;0.77;;;4.90;99.90;;;;;;7392720;19;20466;-79
2023/12/05 04:29:42;;;;;;;0.60;0.60;;;4.90;99.90;;;;;;7393519;19;20151;-80
2023/12/05 04:32:08;;;;;;;0.30;0.30;;;4.90;99.90;;;;;;7390120;19;20211;-81
2023/12/05 04:34:35;;;;;;;0.93;0.73;;;4.90;99.90;;;;;;7394252;19;20127;-81
2023/12/05 04:37:00;;;;;;;0.53;0.53;;;4.80;99.90;;;;;;7395516;19;20226;-82
2023/12/05 04:39:26;;;;;;;0.60;0.60;;;4.70;99.90;;;;;;7395892;19;20503;-81
2023/12/05 04:41:52;;;;;;;0.80;0.80;;;4.70;99.90;;;;;;7385765;19;20214;-82
2023/12/05 04:44:18;;;;;;;0.77;0.57;;;4.60;99.90;;;;;;7395823;19;20250;-80
2023/12/05 04:46:44;;;;;;;0.60;0.60;;;4.60;99.90;;;;;;7394609;19;20505;-80
2023/12/05 04:49:10;;;;;;;0.43;0.43;;;4.60;99.90;;;;;;7391381;19;20137;-80
2023/12/05 04:51:35;;;;;;;0.90;0.90;;;4.80;99.90;;;;;;7391291;19;20596;-80
2023/12/05 04:54:01;;;;;;;0.43;0.43;;;4.80;99.90;;;;;;7393991;19;20138;-81
2023/12/05 04:56:27;;;;;;;0.40;0.40;;;4.80;99.90;;;;;;7395125;19;20535;-80
2023/12/05 04:58:53;;;;;;;1.80;0.53;;;4.80;99.90;;;;;;7394416;19;20580;-81
2023/12/05 05:01:19;;;;;;;0.90;0.80;;;4.70;99.90;;;;;;7391379;19;20130;-80
2023/12/05 05:03:44;;;;;;;0.63;0.63;;;4.90;99.90;;;;;;7390701;19;20616;-80
2023/12/05 05:06:11;;;;;;;0.77;0.73;;;4.80;99.90;;;;;;7387648;19;20143;-79
2023/12/05 05:08:38;;;;;;;0.63;0.63;;;4.90;99.90;;;;;;7389424;19;20166;-80
2023/12/05 05:11:04;;;;;;;0.40;0.40;;;5.00;99.90;;;;;;7394058;19;20167;-80
2023/12/05 05:13:29;;;;;;;0.80;0.60;;;4.90;99.90;;;;;;7392571;19;20138;-80
2023/12/05 05:15:55;;;;;;;0.40;0.40;;;4.90;99.90;;;;;;7394154;19;20135;-81
2023/12/05 05:18:21;;;;;;;0.30;0.30;;;4.90;99.90;;;;;;7391916;19;20131;-80
2023/12/05 05:20:46;;;;;;;0.60;0.60;;;4.80;99.90;;;;;;7388091;19;20131;-81
2023/12/05 05:23:12;;;;;;;0.93;0.73;;;4.80;99.90;;;;;;7388885;19;20497;-80
2023/12/05 05:25:38;;;;;;;1.10;0.50;;;4.80;99.90;;;;;;7392131;19;20146;-80
2023/12/05 05:28:04;;;;;;;0.70;0.47;;;4.80;99.90;;;;;;7391730;19;20142;-80
2023/12/05 05:30:29;;;;;;;0.40;0.40;;;4.90;99.90;;;;;;7393697;19;20142;-81
2023/12/05 05:32:55;;;;;;;0.93;0.60;;;4.90;99.90;;;;;;7396433;19;20173;-80
2023/12/05 05:35:21;;;;;;;0.83;0.60;;;4.90;99.90;;;;;;7393736;19;20218;-81
2023/12/05 05:37:46;;;;;;;0.40;0.40;;;4.90;99.90;;;;;;7393287;19;20126;-81
2023/12/05 05:40:13;;;;;;;0.47;0.43;;;4.80;99.90;;;;;;7392885;19;20154;-81
2023/12/05 05:42:39;;;;;;;0.60;0.60;;;4.80;99.90;;;;;;7386431;19;20174;-81
2023/12/05 05:45:05;;;;;;;0.30;0.30;;;4.90;99.90;;;;;;7391538;19;20233;-83
2023/12/05 05:47:31;;;;;;;1.03;0.43;;;4.90;99.90;;;;;;7390914;19;20138;-82
2023/12/05 05:50:01;;;;;;;0.50;0.50;;;4.90;99.90;;;;;;7390023;19;20145;-81
2023/12/05 05:52:27;;;;;;;0.73;0.60;;;4.80;99.90;;;;;;7392800;19;20149;-83
2023/12/05 05:54:53;;;;;;;0.87;0.73;;;4.90;99.90;;;;;;7388475;19;20841;-80
2023/12/05 05:57:19;;;;;;;2.13;0.80;;;5.00;99.90;;;;;;7388563;19;20151;-80
2023/12/05 05:59:44;;;;;;;0.47;0.47;;;4.90;99.90;;;;;;7385003;19;20131;-80
2023/12/05 06:02:14;;;;;;;0.20;0.20;;;4.90;99.90;;;;;;7390875;19;20623;-81
2023/12/05 06:04:43;;;;;;;1.50;0.53;;;4.90;99.90;;;;;;7390138;19;20170;-79
2023/12/05 06:07:09;;;;;;;0.40;0.40;;;4.90;99.90;;;;;;7394245;19;20146;-80
2023/12/05 06:09:35;;;;;;;0.50;0.47;;;4.90;99.90;;;;;;7389005;19;20131;-79
2023/12/05 06:12:03;;;;;;;0.93;0.53;;;4.90;99.90;;;;;;7388549;19;20131;-79
2023/12/05 06:14:29;;;;;;;0.50;0.50;;;4.90;99.90;;;;;;7386245;19;20146;-80
2023/12/05 06:16:55;;;;;;;0.40;0.40;;;5.10;99.90;;;;;;7391001;19;20214;-80
2023/12/05 06:19:20;;;;;;;0.40;0.40;;;5.10;99.90;;;;;;7387939;19;20150;-80
2023/12/05 06:21:46;;;;;;;0.50;0.50;;;4.90;99.90;;;;;;7390735;19;20175;-83
2023/12/05 06:24:12;;;;;;;0.90;0.90;;;5.10;99.90;;;;;;7391760;19;20135;-83
2023/12/05 06:26:38;;;;;;;0.77;0.50;;;5.00;99.90;;;;;;7393156;19;20147;-83
2023/12/05 06:29:04;;;;;;;0.57;0.47;;;4.90;99.90;;;;;;7391719;19;20131;-83
2023/12/05 06:31:32;;;;;;;1.20;0.97;;;4.90;99.90;;;;;;7392427;19;20155;-83
2023/12/05 06:34:01;;;;;;;0.40;0.40;;;5.00;99.90;;;;;;7391477;19;20187;-82
2023/12/05 06:36:27;;;;;;;0.53;0.50;;;4.90;99.90;;;;;;7391576;19;20165;-83
2023/12/05 06:38:52;;;;;;;0.93;0.93;;;4.90;99.90;;;;;;7392377;19;20534;-84
2023/12/05 06:41:18;;;;;;;0.30;0.30;;;4.90;99.90;;;;;;7389095;19;20146;-83
2023/12/05 06:43:44;;;;;;;0.90;0.73;;;4.90;99.90;;;;;;7385064;19;20181;-83
2023/12/05 06:46:09;;;;;;;0.93;0.93;;;4.90;99.90;;;;;;7394349;19;20202;-82
2023/12/05 06:48:35;;;;;;;0.50;0.50;;;4.90;99.90;;;;;;7391568;19;20590;-84
2023/12/05 06:51:01;;;;;;;0.40;0.40;;;5.00;99.90;;;;;;7392379;19;20155;-84
2023/12/05 06:53:27;;;;;;;0.40;0.40;;;5.20;99.90;;;;;;7390524;19;20178;-82
2023/12/05 06:55:53;;;;;;;0.40;0.30;;;5.20;99.90;;;;;;7390797;19;20137;-84
2023/12/05 06:58:22;;;;;;;1.33;0.53;;;5.10;99.90;;;;;;7387709;19;20643;-82
2023/12/05 07:00:48;;;;;;;0.50;0.50;;;5.10;99.90;;;;;;7391053;19;20163;-83
2023/12/05 07:03:15;;;;;;;1.67;0.57;;;5.00;99.90;;;;;;7390952;19;20218;-83
2023/12/05 07:05:41;;;;;;;0.50;0.47;;;4.90;99.90;;;;;;7391123;19;20169;-81
2023/12/05 07:08:07;;;;;;;0.67;0.57;;;5.10;99.90;;;;;;7382718;19;20493;-80
2023/12/05 07:10:33;;;;;;;0.30;0.30;;;5.20;99.90;;;;;;7384677;19;20138;-82
2023/12/05 07:12:58;;;;;;;1.10;1.00;;;5.30;99.90;;;;;;7386615;19;20250;-81
2023/12/05 07:15:24;;;;;;;1.10;1.00;;;5.30;99.90;;;;;;7393086;19;20211;-83
2023/12/05 07:17:50;;;;;;;0.87;0.87;;;5.20;99.90;;;;;;7392251;19;20205;-83
2023/12/05 07:20:16;;;;;;;0.43;0.43;;;5.10;99.90;;;;;;7387123;19;20134;-82
2023/12/05 07:22:43;;;;;;;0.40;0.40;;;5.20;99.90;;;;;;7388733;19;20135;-82
2023/12/05 07:25:10;;;;;;;0.67;0.60;;;5.10;99.90;;;;;;7384411;19;20151;-81
2023/12/05 07:27:36;;;;;;;0.40;0.40;;;4.90;99.90;;;;;;7383829;19;20486;-83
2023/12/05 07:30:03;;;;;;;0.70;0.60;;;4.90;99.90;;;;;;7386018;19;20266;-82
2023/12/05 07:32:29;;;;;;;0.40;0.40;;;5.10;99.90;;;;;;7386133;19;20159;-83
2023/12/05 07:34:54;;;;;;;0.93;0.70;;;5.20;99.90;;;;;;7386511;19;20594;-81
2023/12/05 07:37:20;;;;;;;0.67;0.60;;;5.20;99.90;;;;;;7387150;19;20134;-81
2023/12/05 07:39:46;;;;;;;0.23;0.23;;;5.30;99.90;;;;;;7389545;19;20131;-82
2023/12/05 07:42:12;;;;;;;0.50;0.50;;;5.40;99.90;;;;;;7385060;19;20142;-82
2023/12/05 07:44:37;;;;;;;0.30;0.30;;;5.40;99.90;;;;;;7380860;19;20157;-81
2023/12/05 07:47:07;;;;;;;0.20;0.20;;;5.40;99.90;;;;;;7386461;19;20154;-82
2023/12/05 07:49:34;;;;;;;1.10;0.97;;;5.40;99.90;;;;;;7384895;19;20703;-80
2023/12/05 07:52:01;;;;;;;0.53;0.40;;;5.60;99.90;;;;;;7382800;19;20131;-81
2023/12/05 07:54:26;;;;;;;0.57;0.57;;;5.50;99.90;;;;;;7387692;19;20139;-80
2023/12/05 07:56:52;;;;;;;0.53;0.53;;;5.50;99.90;;;;;;7394335;19;20147;-80
2023/12/05 07:59:18;;;;;;;0.50;0.50;;;5.60;99.90;;;;;;7396616;19;20150;-80
2023/12/05 08:01:45;;;;;;;0.57;0.57;;;5.80;99.90;;;;;;7396066;19;20138;-81
2023/12/05 08:04:11;;;;;;;0.40;0.40;;;5.90;99.90;;;;;;7385882;19;20134;-80
2023/12/05 08:06:37;;;;;;;1.53;0.50;;;5.70;99.90;;;;;;7390716;19;20134;-80
2023/12/05 08:09:02;;;;;;;0.43;0.43;;;5.60;99.90;;;;;;7388298;19;20147;-82
2023/12/05 08:11:28;;;;;;;0.50;0.50;;;5.60;99.90;;;;;;7392160;19;20159;-81
2023/12/05 08:13:57;;;;;;;0.47;0.47;;;5.60;99.90;;;;;;7390036;19;20520;-81
2023/12/05 08:16:22;;;;;;;0.70;0.70;;;5.90;99.90;;;;;;7391763;19;20150;-80
2023/12/05 08:18:48;;;;;;;0.40;0.40;;;5.80;99.90;;;;;;7393187;19;20134;-81
2023/12/05 08:21:14;;;;;;;0.87;0.33;;;5.80;99.90;;;;;;7397223;19;20134;-80
2023/12/05 08:23:40;;;;;;;0.40;0.40;;;5.80;99.90;;;;;;7392625;19;20169;-79
2023/12/05 08:26:06;;;;;;;0.30;0.20;;;5.70;99.90;;;;;;7391318;19;20139;-81
2023/12/05 08:28:32;;;;;;;0.77;0.77;;;5.60;99.90;;;;;;7396381;19;20151;-81
2023/12/05 08:30:58;;;;;;;0.90;0.87;;;5.60;99.90;;;;;;7396705;19;20501;-79
2023/12/05 08:33:36;;;;;;;0.70;0.70;;;5.70;99.90;;;;;;7396063;19;20154;-81
2023/12/05 08:36:04;;;;;;;0.50;0.50;;;5.80;99.90;;;;;;7396113;19;20598;-79
2023/12/05 08:38:30;;;;;;;0.33;0.33;;;5.90;99.90;;;;;;7392542;19;20143;-82
2023/12/05 08:40:56;;;;;;;0.40;0.40;;;6.10;99.90;;;;;;7387247;19;20792;-81
2023/12/05 08:43:22;;;;;;;0.80;0.80;;;6.30;99.90;;;;;;7390522;19;20186;-80
2023/12/05 08:45:48;;;;;;;0.33;0.33;;;6.30;99.90;;;;;;7392763;19;20134;-80
2023/12/05 08:48:14;;;;;;;0.67;0.40;;;6.20;99.90;;;;;;7388445;19;20142;-80
2023/12/05 08:50:41;;;;;;;0.83;0.80;;;6.20;99.90;;;;;;7393660;19;20221;-83
2023/12/05 08:53:06;;;;;;;1.20;0.70;;;6.10;99.90;;;;;;7387818;19;20150;-83
2023/12/05 08:55:32;;;;;;;0.60;0.60;;;6.00;99.90;;;;;;7391428;19;20475;-80
2023/12/05 08:57:58;;;;;;;0.77;0.77;;;6.00;99.90;;;;;;7392737;19;20202;-79
2023/12/05 09:00:27;;;;;;;0.30;0.30;;;6.20;99.90;;;;;;7387799;19;20146;-79
2023/12/05 09:02:55;;;;;;;1.03;0.67;;;6.20;99.90;;;;;;7392532;19;20158;-80
2023/12/05 09:05:21;;;;;;;0.40;0.40;;;6.50;99.90;;;;;;7390337;19;20209;-81
2023/12/05 09:07:47;;;;;;;0.30;0.30;;;6.40;99.90;;;;;;7390583;19;20155;-80
2023/12/05 09:10:13;;;;;;;0.30;0.30;;;6.50;99.90;;;;;;7385285;19;20142;-78
2023/12/05 09:12:40;;;;;;;0.40;0.40;;;6.40;99.90;;;;;;7390391;19;20130;-78
2023/12/05 09:15:06;;;;;;;0.50;0.47;;;6.40;99.90;;;;;;7388701;19;20146;-79
2023/12/05 09:17:32;;;;;;;0.90;0.80;;;6.60;99.90;;;;;;7388283;19;20596;-79
2023/12/05 09:19:58;;;;;;;0.73;0.57;;;6.60;99.90;;;;;;7389731;19;20130;-77
2023/12/05 09:22:25;;;;;;;0.40;0.40;;;6.60;99.90;;;;;;7392483;19;20479;-78
2023/12/05 09:24:51;;;;;;;1.10;0.83;;;6.60;99.90;;;;;;7391217;19;20150;-79
2023/12/05 09:27:16;;;;;;;0.60;0.47;;;6.60;99.90;;;;;;7391087;19;20146;-78
2023/12/05 09:29:42;;;;;;;0.40;0.40;;;6.50;99.90;;;;;;7393168;19;20171;-79
2023/12/05 09:32:08;;;;;;;0.40;0.40;;;6.50;99.90;;;;;;7385482;19;20138;-81
2023/12/05 09:34:35;;;;;;;0.50;0.50;;;6.60;99.90;;;;;;7389194;19;20143;-77
2023/12/05 09:37:01;;;;;;;0.20;0.20;;;6.60;99.90;;;;;;7388025;19;20146;-79
2023/12/05 09:39:29;;;;;;;0.73;0.70;;;6.60;99.90;;;;;;7394152;19;20147;-78
2023/12/05 09:41:57;;;;;;;0.50;0.43;;;6.60;99.90;;;;;;7391557;19;20178;-79
2023/12/05 09:44:31;;;;;;;0.50;0.50;;;6.70;99.90;;;;;;7391967;19;20693;-79
2023/12/05 09:46:58;;;;;;;0.50;0.50;;;6.70;99.90;;;;;;7393451;19;20174;-78
2023/12/05 09:49:27;;;;;;;1.00;0.70;;;6.70;99.90;;;;;;7386812;19;20118;-78
2023/12/05 09:51:57;;;;;;;0.40;0.40;;;6.90;99.90;;;;;;7391652;19;20499;-78
2023/12/05 09:54:25;;;;;;;0.50;0.50;;;7.00;99.90;;;;;;7385999;19;20499;-78
2023/12/05 09:56:57;;;;;;;0.50;0.50;;;6.90;99.90;;;;;;7389265;19;20130;-78
2023/12/05 09:59:23;;;;;;;0.60;0.50;;;6.90;99.90;;;;;;7390885;19;20640;-81
2023/12/05 10:01:55;;;;;;;1.53;1.43;;;6.80;99.90;;;;;;7387003;19;20163;-79
2023/12/05 10:04:23;;;;;;;1.07;0.33;;;6.90;99.90;;;;;;7386664;19;20150;-79
2023/12/05 10:06:56;;;;;;;0.30;0.30;;;7.10;99.90;;;;;;7389754;19;20608;-78
2023/12/05 10:09:30;;;;;;;0.60;0.60;;;7.00;99.90;;;;;;7387027;19;20166;-79
2023/12/05 10:11:56;;;;;;;0.40;0.40;;;7.10;99.90;;;;;;7391454;19;20504;-79
2023/12/05 10:14:22;;;;;;;0.60;0.60;;;7.10;99.90;;;;;;7390243;19;20147;-79
2023/12/05 10:16:49;;;;;;;2.17;0.57;;;7.10;99.90;;;;;;7385690;19;20241;-79
2023/12/05 10:19:16;;;;;;;0.43;0.40;;;7.20;99.90;;;;;;7381292;19;20155;-78
2023/12/05 10:21:44;;;;;;;2.00;0.87;;;7.30;99.90;;;;;;7384315;19;20592;-77
2023/12/05 10:24:10;;;;;;;0.33;0.33;;;7.80;99.90;;;;;;7384753;19;20138;-77
2023/12/05 10:26:47;;;;;;;0.30;0.30;;;7.40;99.90;;;;;;7389437;19;20133;-77
2023/12/05 10:29:13;;;;;;;0.40;0.40;;;7.50;99.90;;;;;;7386975;19;20142;-76
2023/12/05 10:31:40;;;;;;;0.40;0.40;;;7.70;99.90;;;;;;7383335;19;20137;-77
2023/12/05 10:34:06;;;;;;;0.50;0.43;;;7.70;99.90;;;;;;7387344;19;20565;-77
2023/12/05 10:36:32;;;;;;;0.80;0.40;;;7.80;99.90;;;;;;7390400;19;20161;-78
2023/12/05 10:38:58;;;;;;;0.30;0.30;;;7.90;99.90;;;;;;7390664;19;20623;-79
2023/12/05 10:41:29;;;;;;;0.70;0.70;;;8.00;99.90;;;;;;7386754;19;20584;-78
2023/12/05 10:43:56;;;;;;;0.87;0.63;;;8.00;99.90;;;;;;7390744;19;20162;-79
2023/12/05 10:46:28;;;;;;;1.27;0.63;;;8.00;99.90;;;;;;7387941;19;20149;-81
2023/12/05 10:49:12;;;;;;;2.10;0.47;;;8.10;99.90;;;;;;7390530;19;20163;-81
2023/12/05 10:51:40;;;;;;;0.50;0.50;;;8.00;99.90;;;;;;7389672;19;20564;-79
2023/12/05 10:54:07;;;;;;;0.67;0.40;;;8.10;99.90;;;;;;7390086;19;20210;-78
2023/12/05 10:56:33;;;;;;;0.30;0.30;;;8.20;99.90;;;;;;7386967;19;20131;-78
2023/12/05 10:59:00;;;;;;;1.37;0.90;;;8.40;99.90;;;;;;7380652;19;20592;-77
2023/12/05 11:01:27;;;;;;;0.50;0.37;;;8.40;99.90;;;;;;7389077;19;20450;-78
2023/12/05 11:03:58;;;;;;;2.27;0.90;;;8.30;99.90;;;;;;7396730;19;20151;-80
2023/12/05 11:06:25;;;;;;;0.20;0.20;;;8.30;99.90;;;;;;7386657;19;20719;-78
2023/12/05 11:08:51;;;;;;;0.80;0.50;;;8.30;99.90;;;;;;7387168;19;20206;-78
2023/12/05 11:11:18;;;;;;;0.30;0.30;;;8.50;99.90;;;;;;7389806;19;20152;-77
2023/12/05 11:13:47;;;;;;;0.33;0.33;;;8.50;99.90;;;;;;7385997;19;20487;-79
2023/12/05 11:16:23;;;;;;;0.47;0.33;;;8.60;99.90;;;;;;7382946;19;20495;-78
2023/12/05 11:19:15;;;;;;;0.30;0.30;;;8.50;99.90;;;;;;7382073;19;20146;-78
2023/12/05 11:22:22;;;;;;;0.67;0.33;;;8.50;99.90;;;;;;7384294;19;20587;-78
2023/12/05 11:25:25;;;;;;;3.33;0.87;;;8.60;99.90;;;;;;7386919;19;20161;-77
2023/12/05 11:28:10;;;;;;;0.30;0.30;;;8.70;99.90;;;;;;7391121;19;20141;-76
2023/12/05 11:30:52;;;;;;;0.30;0.30;;;8.60;99.90;;;;;;7393159;19;20151;-78
2023/12/05 11:33:53;;;;;;;0.47;0.47;;;8.60;99.90;;;;;;7394885;19;20170;-77
2023/12/05 11:36:52;;;;;;;0.30;0.30;;;8.70;99.90;;;;;;7393913;19;20163;-77
2023/12/05 11:39:18;;;;;;;0.37;0.37;;;8.80;99.90;;;;;;7393647;19;20459;-79
2023/12/05 11:42:14;;;;;;;0.50;0.50;;;8.90;99.90;;;;;;7395759;19;20189;-76
2023/12/05 11:44:43;;;;;;;0.40;0.40;;;9.00;99.90;;;;;;7394428;19;20181;-79
2023/12/05 11:47:24;;;;;;;0.23;0.23;;;9.00;99.90;;;;;;7394085;19;20143;-78
2023/12/05 11:49:53;;;;;;;0.47;0.40;;;9.10;99.90;;;;;;7398305;19;20453;-77
2023/12/05 11:52:20;;;;;;;0.50;0.50;;;9.10;99.90;;;;;;7394317;19;20214;-77
2023/12/05 11:54:48;;;;;;;0.43;0.43;;;9.20;99.90;;;;;;7389419;19;20173;-79
2023/12/05 11:57:24;;;;;;;0.30;0.30;;;9.10;99.90;;;;;;7393971;19;20541;-78
2023/12/05 11:59:56;;;;;;;0.83;0.57;;;9.20;99.90;;;;;;7393336;19;20136;-76
2023/12/05 12:02:32;;;;;;;0.70;0.50;;;9.20;99.90;;;;;;7391078;19;20179;-77
2023/12/05 12:05:03;;;;;;;0.40;0.40;;;9.00;99.90;;;;;;7389025;19;20137;-79
2023/12/05 12:07:29;;;;;;;0.40;0.40;;;9.10;99.90;;;;;;7389936;19;20131;-76
2023/12/05 12:09:55;;;;;;;0.73;0.50;;;9.10;99.90;;;;;;7393850;19;20134;-75
2023/12/05 12:12:21;;;;;;;0.40;0.40;;;9.20;99.90;;;;;;7395213;19;20138;-75
2023/12/05 12:14:47;;;;;;;0.30;0.30;;;9.20;99.90;;;;;;7399553;19;20126;-77
2023/12/05 12:17:14;;;;;;;0.30;0.30;;;9.30;99.90;;;;;;7395198;19;20202;-80
2023/12/05 12:19:42;;;;;;;0.40;0.40;;;9.40;99.90;;;;;;7394159;19;20553;-78
2023/12/05 12:22:09;;;;;;;0.30;0.30;;;9.70;99.90;;;;;;7394431;19;20151;-78
2023/12/05 12:24:39;;;;;;;0.20;0.20;;;9.50;99.90;;;;;;7391372;19;20152;-77
2023/12/05 12:27:09;;;;;;;0.67;0.50;;;9.40;99.90;;;;;;7398021;19;20138;-77
2023/12/05 12:29:36;;;;;;;0.80;0.80;;;9.40;99.90;;;;;;7388610;19;20162;-77
2023/12/05 12:32:11;;;;;;;0.47;0.47;;;9.00;99.90;;;;;;7394794;19;20165;-77
2023/12/05 12:34:41;;;;;;;0.50;0.50;;;9.10;99.90;;;;;;7390319;19;20192;-78
2023/12/05 12:37:11;;;;;;;0.33;0.33;;;9.10;99.90;;;;;;7392187;19;20147;-77
2023/12/05 12:39:37;;;;;;;0.20;0.20;;;9.40;99.90;;;;;;7395281;19;20706;-78
2023/12/05 12:42:04;;;;;;;0.30;0.30;;;9.50;99.90;;;;;;7395495;19;20159;-77
2023/12/05 12:44:30;;;;;;;0.50;0.50;;;9.50;99.90;;;;;;7387478;19;20191;-77
2023/12/05 12:46:56;;;;;;;0.37;0.37;;;9.60;99.90;;;;;;7394879;19;20158;-77
2023/12/05 12:49:24;;;;;;;0.50;0.50;;;9.90;99.90;;;;;;7390286;19;20155;-77
2023/12/05 12:51:50;;;;;;;0.93;0.57;;;9.90;99.90;;;;;;7390448;19;20154;-77
2023/12/05 12:54:17;;;;;;;0.40;0.40;;;9.80;99.90;;;;;;7388472;19;20818;-78
2023/12/05 12:56:43;;;;;;;0.30;0.30;;;9.70;99.90;;;;;;7389781;19;20607;-79
2023/12/05 12:59:10;;;;;;;0.77;0.30;;;9.70;99.90;;;;;;7388860;19;20126;-79
2023/12/05 13:01:40;;;;;;;0.37;0.37;;;9.70;99.90;;;;;;7385976;19;20146;-78